createdAt,value
2023-03-31T00:02:35.829Z,33
2023-03-31T00:08:28.408Z,32.9
2023-03-31T00:14:13.371Z,32.9
2023-03-31T00:20:07.091Z,32.9
2023-03-31T00:25:58.682Z,32.8
2023-03-31T00:31:50.112Z,32.8
2023-03-31T00:37:42.786Z,32.7
2023-03-31T00:43:35.971Z,32.7
2023-03-31T00:49:28.920Z,32.6
2023-03-31T00:55:20.667Z,32.6
2023-03-31T01:01:12.471Z,32.5
2023-03-31T01:07:04.923Z,32.5
2023-03-31T01:12:56.666Z,32.4
2023-03-31T01:18:49.617Z,32.4
2023-03-31T01:24:41.351Z,32.3
2023-03-31T01:30:32.570Z,32.3
2023-03-31T01:36:24.849Z,32.3
2023-03-31T01:42:00.451Z,32.2
2023-03-31T01:47:52.537Z,32.1
2023-03-31T01:53:44.505Z,32.1
2023-03-31T01:59:35.951Z,32.1
2023-03-31T02:11:03.929Z,32
2023-03-31T02:16:55.881Z,31.9
2023-03-31T02:22:47.910Z,31.8
2023-03-31T02:28:39.645Z,31.8
2023-03-31T02:34:30.856Z,31.8
2023-03-31T02:40:23.389Z,31.7
2023-03-31T02:46:14.587Z,31.6
2023-03-31T02:52:06.104Z,31.3
2023-03-31T02:57:58.521Z,31.1
2023-03-31T03:03:50.410Z,31
2023-03-31T03:09:28.777Z,30.9
2023-03-31T03:20:25.867Z,30.7
2023-03-31T03:26:19.198Z,30.6
2023-03-31T03:32:11.388Z,30.6
2023-03-31T03:38:03.633Z,30.5
2023-03-31T03:43:54.422Z,30.4
2023-03-31T03:49:31.479Z,30.4
2023-03-31T03:55:08.189Z,30.3
2023-03-31T04:00:44.703Z,30.3
2023-03-31T04:06:24.785Z,30.2
2023-03-31T04:12:01.021Z,30.2
2023-03-31T04:17:37.800Z,30.1
2023-03-31T04:22:46.477Z,30
2023-03-31T04:28:22.412Z,29.9
2023-03-31T04:33:58.217Z,29.8
2023-03-31T04:39:50.473Z,29.7
2023-03-31T04:45:25.981Z,29.6
2023-03-31T04:51:06.138Z,29.6
2023-03-31T04:56:58.569Z,29.4
2023-03-31T05:02:35.550Z,29.4
2023-03-31T05:08:27.995Z,29.3
2023-03-31T05:14:20.771Z,29.2
2023-03-31T05:20:12.201Z,29.1
2023-03-31T05:26:06.903Z,29.1
2023-03-31T05:31:58.891Z,29
2023-03-31T05:37:53.438Z,28.9
2023-03-31T05:43:44.937Z,28.9
2023-03-31T05:49:38.032Z,28.9
2023-03-31T05:55:33.634Z,28.8
2023-03-31T06:01:27.443Z,28.7
2023-03-31T06:07:19.748Z,28.6
2023-03-31T06:13:12.585Z,28.5
2023-03-31T06:18:51.468Z,28.4
2023-03-31T06:24:56.683Z,28.4
2023-03-31T06:30:55.732Z,28.3
2023-03-31T06:36:48.866Z,28.3
2023-03-31T06:42:25.481Z,26.3
2023-03-31T06:48:18.701Z,26.4
2023-03-31T06:54:10.343Z,27.8
2023-03-31T07:00:03.006Z,27.5
2023-03-31T07:05:42.297Z,27.7
2023-03-31T07:11:20.993Z,31.1
2023-03-31T07:17:18.063Z,33.9
2023-03-31T07:23:09.947Z,36.4
2023-03-31T07:29:04.833Z,37.9
2023-03-31T07:34:56.874Z,39
2023-03-31T07:40:45.253Z,38.5
2023-03-31T07:46:30.054Z,38.8
2023-03-31T07:52:22.631Z,41.3
2023-03-31T07:58:13.725Z,44
2023-03-31T08:04:06.484Z,44.3
2023-03-31T08:09:58.053Z,44.6
2023-03-31T08:16:02.985Z,44.4
2023-03-31T08:21:59.782Z,43.7
2023-03-31T08:27:54.019Z,48.1
2023-03-31T08:33:45.162Z,50.8
2023-03-31T08:39:35.994Z,52.4
2023-03-31T08:45:27.808Z,51
2023-03-31T08:51:19.564Z,47.4
2023-03-31T08:57:11.080Z,52.7
2023-03-31T09:03:18.405Z,49.6
2023-03-31T09:09:22.500Z,46.6
2023-03-31T09:15:16.138Z,47.8
2023-03-31T09:21:10.515Z,47.1
2023-03-31T09:27:02.041Z,52.8
2023-03-31T09:32:53.527Z,52.9
2023-03-31T09:38:32.084Z,54.3
2023-03-31T09:44:07.564Z,54.8
2023-03-31T09:50:27.166Z,52.3
2023-03-31T09:56:28.845Z,54
2023-03-31T10:02:21.017Z,54.4
2023-03-31T10:08:13.417Z,51.2
2023-03-31T10:13:49.630Z,49.6
2023-03-31T10:19:50.411Z,49.4
2023-03-31T10:25:26.458Z,48.8
2023-03-31T10:31:02.333Z,48.4
2023-03-31T10:36:46.601Z,48.2
2023-03-31T10:42:38.842Z,47.5
2023-03-31T10:48:40.072Z,46.5
2023-03-31T10:54:32.064Z,46.2
2023-03-31T11:00:26.209Z,45.5
2023-03-31T11:06:03.912Z,45.5
2023-03-31T11:11:43.349Z,45
2023-03-31T11:17:19.827Z,45.9
2023-03-31T11:23:12.864Z,47.6
2023-03-31T11:29:04.631Z,46.7
2023-03-31T11:34:58.656Z,48.8
2023-03-31T11:40:52.021Z,46
2023-03-31T11:46:45.033Z,46.4
2023-03-31T11:52:21.171Z,45
2023-03-31T11:57:57.289Z,35.4
2023-03-31T12:03:49.405Z,30.6
2023-03-31T12:09:41.143Z,30.4
2023-03-31T12:15:33.414Z,32.1
2023-03-31T12:21:10.289Z,33.1
2023-03-31T12:27:01.441Z,33.3
2023-03-31T12:32:53.052Z,33.8
2023-03-31T12:38:44.703Z,32.9
2023-03-31T12:44:20.773Z,37.9
2023-03-31T12:50:00.614Z,39.4
2023-03-31T12:55:54.207Z,40.1
2023-03-31T13:01:45.642Z,41.3
2023-03-31T13:07:53.593Z,42.2
2023-03-31T13:13:54.453Z,41.9
2023-03-31T13:19:51.627Z,39.3
2023-03-31T13:25:44.711Z,42.1
2023-03-31T13:31:35.621Z,42.5
2023-03-31T13:37:30.761Z,43.2
2023-03-31T13:43:09.039Z,43.3
2023-03-31T13:49:01.764Z,42.6
2023-03-31T13:54:56.659Z,42.4
2023-03-31T14:01:10.977Z,41.9
2023-03-31T14:07:03.211Z,42.5
2023-03-31T14:12:24.046Z,42.9
2023-03-31T14:18:01.745Z,43.3
2023-03-31T14:23:54.958Z,43
2023-03-31T14:29:45.972Z,42.7
2023-03-31T14:35:39.000Z,42.3
2023-03-31T14:41:31.234Z,41.9
2023-03-31T14:47:22.624Z,41.6
2023-03-31T14:52:43.729Z,41.1
2023-03-31T14:58:58.721Z,40.7
2023-03-31T15:04:59.050Z,40.1
2023-03-31T15:10:58.788Z,39.6
2023-03-31T15:17:05.800Z,39
2023-03-31T15:22:58.107Z,38.5
2023-03-31T15:29:04.391Z,38
2023-03-31T15:35:31.184Z,37.4
2023-03-31T15:41:22.982Z,36.9
2023-03-31T15:47:32.894Z,36.4
2023-03-31T15:53:23.579Z,35.9
2023-03-31T15:59:18.452Z,35.4
2023-03-31T16:11:19.410Z,26.6
2023-03-31T16:16:55.364Z,26
2023-03-31T16:22:31.273Z,25.8
2023-03-31T16:28:08.052Z,25.6
2023-03-31T16:33:44.414Z,25.4
2023-03-31T16:39:21.093Z,25.6
2023-03-31T16:45:10.096Z,25.7
2023-03-31T16:51:19.309Z,25.8
2023-03-31T16:56:55.242Z,25.8
2023-03-31T17:02:47.816Z,25.8
2023-03-31T17:08:52.288Z,25.8
2023-03-31T17:14:43.951Z,25.8
2023-03-31T17:21:01.146Z,25.8
2023-03-31T17:26:36.809Z,25.7
2023-03-31T17:32:29.064Z,25.7
2023-03-31T17:38:05.897Z,25.7
2023-03-31T17:43:57.001Z,25.6
2023-03-31T17:49:51.328Z,25.6
2023-03-31T17:55:43.437Z,25.5
2023-03-31T18:01:35.041Z,25.4
2023-03-31T18:07:40.235Z,25.3
2023-03-31T18:13:31.445Z,25.2
2023-03-31T18:19:24.799Z,25.1
2023-03-31T18:25:16.389Z,25
2023-03-31T18:31:08.464Z,24.9
2023-03-31T18:36:32.209Z,24.9
2023-03-31T18:42:23.970Z,24.9
2023-03-31T18:48:02.609Z,24.8
2023-03-31T18:53:38.556Z,24.8
2023-03-31T18:59:15.350Z,24.8
2023-03-31T19:05:08.591Z,24.7
2023-03-31T19:11:00.072Z,24.6
2023-03-31T19:16:52.448Z,24.6
2023-03-31T19:22:44.321Z,24.6
2023-03-31T19:28:35.839Z,24.5
2023-03-31T19:34:27.743Z,24.5
2023-03-31T19:40:04.206Z,24.4
2023-03-31T19:45:58.143Z,24.4
2023-03-31T19:51:50.526Z,24.4
2023-03-31T19:57:26.208Z,24.3
2023-03-31T20:03:18.928Z,24.3
2023-03-31T20:09:12.251Z,24.3
2023-03-31T20:15:03.903Z,24.2
2023-03-31T20:20:56.714Z,24.2
2023-03-31T20:26:33.509Z,24.1
2023-03-31T20:32:10.231Z,24.1
2023-03-31T20:37:46.569Z,24.1
2023-03-31T20:43:22.850Z,24.1
2023-03-31T20:49:01.440Z,24.1
2023-03-31T20:54:37.397Z,24.1
2023-03-31T21:00:14.221Z,24.1
2023-03-31T21:06:06.943Z,24
2023-03-31T21:12:03.014Z,24
2023-03-31T21:17:54.497Z,23.9
2023-03-31T21:23:32.201Z,23.9
2023-03-31T21:29:22.991Z,23.9
2023-03-31T21:34:44.090Z,23.9
2023-03-31T21:40:35.640Z,23.9
2023-03-31T21:46:29.485Z,23.9
2023-03-31T21:52:21.389Z,23.9
2023-03-31T21:58:13.189Z,23.9
2023-03-31T22:04:28.656Z,23.8
2023-03-31T22:10:06.008Z,23.8
2023-03-31T22:15:57.869Z,23.8
2023-03-31T22:21:34.341Z,23.8
2023-03-31T22:26:55.466Z,23.8
2023-03-31T22:32:47.515Z,23.8
2023-03-31T22:38:39.553Z,23.8
2023-03-31T22:44:34.600Z,23.8
2023-03-31T22:50:26.150Z,23.8
2023-03-31T22:56:10.582Z,23.7
2023-03-31T23:02:02.721Z,23.7
2023-03-31T23:07:57.052Z,23.7
2023-03-31T23:13:47.582Z,23.7
2023-03-31T23:19:08.929Z,23.6
2023-03-31T23:25:00.564Z,23.7
2023-03-31T23:30:52.327Z,23.6
2023-03-31T23:36:44.545Z,23.6
2023-03-31T23:42:35.854Z,23.6
2023-03-31T23:48:27.119Z,23.6
2023-03-31T23:54:18.205Z,23.6
